createdAt,value
2023-05-16T00:01:09.351Z,20.47
2023-05-16T00:03:39.415Z,16.37
2023-05-16T00:06:06.461Z,15.07
2023-05-16T00:08:33.295Z,17.10
2023-05-16T00:11:00.325Z,16.53
2023-05-16T00:13:29.664Z,16.00
2023-05-16T00:15:56.904Z,17.13
2023-05-16T00:18:23.756Z,14.97
2023-05-16T00:20:51.933Z,14.63
2023-05-16T00:23:18.986Z,21.20
2023-05-16T00:25:47.165Z,15.77
2023-05-16T00:28:14.770Z,17.17
2023-05-16T00:30:41.712Z,15.67
2023-05-16T00:33:08.827Z,17.10
2023-05-16T00:35:35.878Z,17.13
2023-05-16T00:38:03.512Z,18.67
2023-05-16T00:40:30.504Z,24.87
2023-05-16T00:42:57.325Z,15.13
2023-05-16T00:45:24.323Z,16.20
2023-05-16T00:47:52.010Z,17.47
2023-05-16T00:50:19.573Z,21.90
2023-05-16T00:52:46.517Z,15.97
2023-05-16T00:55:13.974Z,15.97
2023-05-16T00:57:41.362Z,17.73
2023-05-16T01:00:10.654Z,20.37
2023-05-16T01:02:38.518Z,16.80
2023-05-16T01:05:05.801Z,15.97
2023-05-16T01:07:32.640Z,12.10
2023-05-16T01:09:59.965Z,19.77
2023-05-16T01:12:49.312Z,19.40
2023-05-16T01:15:47.537Z,16.20
2023-05-16T01:18:43.598Z,13.60
2023-05-16T01:21:21.517Z,13.80
2023-05-16T01:24:35.488Z,15.90
2023-05-16T01:27:04.995Z,14.27
2023-05-16T01:29:32.405Z,14.80
2023-05-16T01:31:59.464Z,13.43
2023-05-16T01:34:26.923Z,13.30
2023-05-16T01:37:25.628Z,20.77
2023-05-16T01:40:07.621Z,19.20
2023-05-16T01:42:41.155Z,15.70
2023-05-16T01:45:23.000Z,18.20
2023-05-16T01:48:02.004Z,16.93
2023-05-16T01:50:34.618Z,14.53
2023-05-16T01:53:11.473Z,14.47
2023-05-16T01:55:46.652Z,17.67
2023-05-16T01:58:16.047Z,14.00
2023-05-16T02:00:43.517Z,15.77
2023-05-16T02:03:11.274Z,19.07
2023-05-16T02:05:38.369Z,11.77
2023-05-16T02:08:05.786Z,11.93
2023-05-16T02:10:32.945Z,8.47
2023-05-16T02:12:59.865Z,12.47
2023-05-16T02:15:27.090Z,10.93
2023-05-16T02:17:54.693Z,9.40
2023-05-16T02:20:21.625Z,12.43
2023-05-16T02:22:49.937Z,13.43
2023-05-16T02:25:17.014Z,10.97
2023-05-16T02:27:44.044Z,10.97
2023-05-16T02:30:12.272Z,13.07
2023-05-16T02:32:40.637Z,14.77
2023-05-16T02:35:08.295Z,14.20
2023-05-16T02:37:35.400Z,16.23
2023-05-16T02:40:05.740Z,13.93
2023-05-16T02:42:33.032Z,15.50
2023-05-16T02:45:00.252Z,10.67
2023-05-16T02:47:27.301Z,14.50
2023-05-16T02:49:54.747Z,7.67
2023-05-16T02:52:21.676Z,10.23
2023-05-16T02:54:59.874Z,10.07
2023-05-16T02:57:35.490Z,8.50
2023-05-16T03:00:02.349Z,7.23
2023-05-16T03:02:29.254Z,9.07
2023-05-16T03:04:56.248Z,7.77
2023-05-16T03:07:23.154Z,10.87
2023-05-16T03:09:50.038Z,9.70
2023-05-16T03:12:17.739Z,7.57
2023-05-16T03:14:45.264Z,6.50
2023-05-16T03:17:12.172Z,11.33
2023-05-16T03:19:39.465Z,10.47
2023-05-16T03:22:06.325Z,11.57
2023-05-16T03:24:33.431Z,9.83
2023-05-16T03:27:00.586Z,18.20
2023-05-16T03:29:27.433Z,13.50
2023-05-16T03:31:57.557Z,12.07
2023-05-16T03:34:26.750Z,13.73
2023-05-16T03:36:53.629Z,9.87
2023-05-16T03:39:20.700Z,11.90
2023-05-16T03:41:47.689Z,8.67
2023-05-16T03:44:14.857Z,6.90
2023-05-16T03:46:41.886Z,4.47
2023-05-16T03:49:11.577Z,4.37
2023-05-16T03:51:38.706Z,9.37
2023-05-16T03:54:05.996Z,11.20
2023-05-16T03:56:32.969Z,11.40
2023-05-16T03:58:59.818Z,8.27
2023-05-16T04:01:27.593Z,10.27
2023-05-16T04:03:54.504Z,8.63
2023-05-16T04:06:22.011Z,13.10
2023-05-16T04:08:48.897Z,9.37
2023-05-16T04:11:15.804Z,8.03
2023-05-16T04:13:42.808Z,6.33
2023-05-16T04:16:09.624Z,8.07
2023-05-16T04:18:36.690Z,6.97
2023-05-16T04:21:03.861Z,9.17
2023-05-16T04:23:30.929Z,8.43
2023-05-16T04:25:58.910Z,11.43
2023-05-16T04:28:25.886Z,7.20
2023-05-16T04:30:53.644Z,10.07
2023-05-16T04:33:20.494Z,3.33
2023-05-16T04:35:48.481Z,3.17
2023-05-16T04:38:15.689Z,3.90
2023-05-16T04:40:43.136Z,6.53
2023-05-16T04:43:10.299Z,4.50
2023-05-16T04:45:37.929Z,4.00
2023-05-16T04:48:05.159Z,3.57
2023-05-16T04:50:32.089Z,4.57
2023-05-16T04:52:58.940Z,3.17
2023-05-16T04:55:26.048Z,3.23
2023-05-16T04:57:53.143Z,2.00
2023-05-16T05:00:20.585Z,1.27
2023-05-16T05:02:47.518Z,1.37
2023-05-16T05:05:14.490Z,1.80
2023-05-16T05:07:41.555Z,1.27
2023-05-16T05:10:09.306Z,2.10
2023-05-16T05:12:36.301Z,3.10
2023-05-16T05:15:04.300Z,1.73
2023-05-16T05:17:31.237Z,1.63
2023-05-16T05:19:58.817Z,2.70
2023-05-16T05:22:27.130Z,1.40
2023-05-16T05:24:54.000Z,0.80
2023-05-16T05:27:20.933Z,0.73
2023-05-16T05:29:47.812Z,0.87
2023-05-16T05:32:14.737Z,0.83
2023-05-16T05:34:41.642Z,0.57
2023-05-16T05:37:08.670Z,2.07
2023-05-16T05:39:35.818Z,0.50
2023-05-16T05:42:03.945Z,0.53
2023-05-16T05:44:31.268Z,0.80
2023-05-16T05:46:58.712Z,0.63
2023-05-16T05:49:27.241Z,0.83
2023-05-16T05:51:54.439Z,1.90
2023-05-16T05:54:21.534Z,1.27
2023-05-16T05:56:48.645Z,0.73
2023-05-16T05:59:16.017Z,0.70
2023-05-16T06:01:44.482Z,1.33
2023-05-16T06:04:11.659Z,1.20
2023-05-16T06:06:40.078Z,1.00
2023-05-16T06:09:07.210Z,0.73
2023-05-16T06:11:34.117Z,0.70
2023-05-16T06:14:01.064Z,0.80
2023-05-16T06:16:28.111Z,0.90
2023-05-16T06:18:55.119Z,1.00
2023-05-16T06:21:22.279Z,1.00
2023-05-16T06:23:49.420Z,0.80
2023-05-16T06:26:16.307Z,0.90
2023-05-16T06:28:43.382Z,1.00
2023-05-16T06:31:10.369Z,0.80
2023-05-16T06:33:37.348Z,0.80
2023-05-16T06:36:04.723Z,2.00
2023-05-16T06:38:31.617Z,1.10
2023-05-16T06:40:58.462Z,0.80
2023-05-16T06:43:25.713Z,0.90
2023-05-16T06:45:52.676Z,0.80
2023-05-16T06:48:19.808Z,0.70
2023-05-16T06:50:53.611Z,0.80
2023-05-16T06:53:20.717Z,0.73
2023-05-16T06:55:48.141Z,0.90
2023-05-16T06:58:15.167Z,0.70
2023-05-16T07:00:42.134Z,0.80
2023-05-16T07:03:09.085Z,0.80
2023-05-16T07:05:36.366Z,0.90
2023-05-16T07:08:04.573Z,2.20
2023-05-16T07:10:32.586Z,1.80
2023-05-16T07:13:01.494Z,1.23
2023-05-16T07:15:31.225Z,2.40
2023-05-16T07:17:58.285Z,0.83
2023-05-16T07:20:25.505Z,1.10
2023-05-16T07:22:52.543Z,1.10
2023-05-16T07:25:19.473Z,0.80
2023-05-16T07:27:46.452Z,0.90
2023-05-16T07:30:14.510Z,1.10
2023-05-16T07:32:42.457Z,0.70
2023-05-16T07:35:10.230Z,0.80
2023-05-16T07:37:37.109Z,0.80
2023-05-16T07:40:04.573Z,4.20
2023-05-16T07:42:32.079Z,0.63
2023-05-16T07:44:58.980Z,0.90
2023-05-16T07:47:26.093Z,0.50
2023-05-16T07:49:53.023Z,3.00
2023-05-16T07:52:20.249Z,1.03
2023-05-16T07:54:47.967Z,0.53
2023-05-16T07:57:18.087Z,2.33
2023-05-16T07:59:45.274Z,2.40
2023-05-16T08:02:12.418Z,1.83
2023-05-16T08:04:39.497Z,0.70
2023-05-16T08:07:06.407Z,1.07
2023-05-16T08:09:33.325Z,1.40
2023-05-16T08:12:03.644Z,0.90
2023-05-16T08:14:32.842Z,0.93
2023-05-16T08:17:00.536Z,0.70
2023-05-16T08:19:28.091Z,0.70
2023-05-16T08:21:55.353Z,1.63
2023-05-16T08:24:22.256Z,0.57
2023-05-16T08:26:49.194Z,0.50
2023-05-16T08:29:17.274Z,0.70
2023-05-16T08:31:44.408Z,0.80
2023-05-16T08:34:11.415Z,0.50
2023-05-16T08:36:38.975Z,0.57
2023-05-16T08:39:06.085Z,1.13
2023-05-16T08:41:33.202Z,0.70
2023-05-16T08:44:00.115Z,0.97
2023-05-16T08:46:30.239Z,0.60
2023-05-16T08:49:00.465Z,0.60
2023-05-16T08:51:34.503Z,0.50
2023-05-16T08:54:07.826Z,0.60
2023-05-16T08:56:36.758Z,0.40
2023-05-16T08:59:04.978Z,0.50
2023-05-16T09:01:32.510Z,0.43
2023-05-16T09:04:00.978Z,0.40
2023-05-16T09:06:28.285Z,0.40
2023-05-16T09:08:55.557Z,0.30
2023-05-16T09:11:22.573Z,1.10
2023-05-16T09:13:49.808Z,0.60
2023-05-16T09:16:19.472Z,0.77
2023-05-16T09:18:58.047Z,1.43
2023-05-16T09:21:38.058Z,1.33
2023-05-16T09:24:07.352Z,1.50
2023-05-16T09:26:37.233Z,0.50
2023-05-16T09:29:14.153Z,0.40
2023-05-16T09:31:41.268Z,0.40
2023-05-16T09:34:11.291Z,0.80
2023-05-16T09:36:38.534Z,0.40
2023-05-16T09:39:08.863Z,0.60
2023-05-16T09:41:36.451Z,1.33
2023-05-16T09:44:07.473Z,0.30
2023-05-16T09:46:37.110Z,0.40
2023-05-16T09:49:04.085Z,0.40
2023-05-16T09:51:32.146Z,0.50
2023-05-16T09:54:00.511Z,0.50
2023-05-16T09:56:27.593Z,2.53
2023-05-16T09:58:54.552Z,0.43
2023-05-16T10:01:21.544Z,0.40
2023-05-16T10:03:48.671Z,0.50
2023-05-16T10:06:17.153Z,0.50
2023-05-16T10:08:44.395Z,0.30
2023-05-16T10:11:11.997Z,0.40
2023-05-16T10:13:40.022Z,0.40
2023-05-16T10:16:14.278Z,0.93
2023-05-16T10:18:42.422Z,0.70
2023-05-16T10:21:15.072Z,0.50
2023-05-16T10:23:43.759Z,0.50
2023-05-16T10:26:14.045Z,0.40
2023-05-16T10:28:41.468Z,0.50
2023-05-16T10:31:11.683Z,0.40
2023-05-16T10:33:40.050Z,1.37
2023-05-16T10:36:11.001Z,0.50
2023-05-16T10:38:39.174Z,0.97
2023-05-16T10:41:07.738Z,1.00
2023-05-16T10:43:34.683Z,2.00
2023-05-16T10:46:09.742Z,0.70
2023-05-16T10:48:41.480Z,1.27
2023-05-16T10:51:40.991Z,0.70
2023-05-16T10:54:15.594Z,0.80
2023-05-16T10:56:43.417Z,0.90
2023-05-16T10:59:25.515Z,1.23
2023-05-16T11:01:55.031Z,1.00
2023-05-16T11:04:22.180Z,1.47
2023-05-16T11:06:53.897Z,1.07
2023-05-16T11:09:23.405Z,1.60
2023-05-16T11:11:53.667Z,1.23
2023-05-16T11:14:29.043Z,1.80
2023-05-16T11:17:07.687Z,1.60
2023-05-16T11:19:50.025Z,2.10
2023-05-16T11:22:20.741Z,1.00
2023-05-16T11:25:01.915Z,1.47
2023-05-16T11:27:38.726Z,0.77
2023-05-16T11:30:05.479Z,1.53
2023-05-16T11:32:36.257Z,2.87
2023-05-16T11:35:05.774Z,2.10
2023-05-16T11:37:32.722Z,1.07
2023-05-16T11:40:09.314Z,1.90
2023-05-16T11:42:40.245Z,1.60
2023-05-16T11:45:22.835Z,1.20
2023-05-16T11:47:50.702Z,1.33
2023-05-16T11:50:26.141Z,1.10
2023-05-16T11:52:56.140Z,1.47
2023-05-16T11:55:40.323Z,1.27
2023-05-16T11:58:09.706Z,1.50
2023-05-16T12:00:36.632Z,5.40
2023-05-16T12:03:05.874Z,1.20
2023-05-16T12:05:34.594Z,1.80
2023-05-16T12:08:04.485Z,1.30
2023-05-16T12:10:34.154Z,4.73
2023-05-16T12:13:02.098Z,0.97
2023-05-16T12:15:29.567Z,1.03
2023-05-16T12:17:56.965Z,1.43
2023-05-16T12:20:25.994Z,0.60
2023-05-16T12:22:52.981Z,0.97
2023-05-16T12:25:35.614Z,0.83
2023-05-16T12:28:05.014Z,1.10
2023-05-16T12:30:32.921Z,1.23
2023-05-16T12:33:07.938Z,1.23
2023-05-16T12:35:38.401Z,1.80
2023-05-16T12:38:10.989Z,2.90
2023-05-16T12:40:41.318Z,0.60
2023-05-16T12:43:22.929Z,2.00
2023-05-16T12:45:52.889Z,3.77
2023-05-16T12:48:20.306Z,1.10
2023-05-16T12:50:48.678Z,1.10
2023-05-16T12:53:18.225Z,0.80
2023-05-16T12:55:45.681Z,1.07
2023-05-16T12:58:13.838Z,1.13
2023-05-16T13:00:40.903Z,1.30
2023-05-16T13:03:08.144Z,1.20
2023-05-16T13:05:36.209Z,1.57
2023-05-16T13:08:03.983Z,1.03
2023-05-16T13:10:31.152Z,0.50
2023-05-16T13:13:01.072Z,1.10
2023-05-16T13:15:28.594Z,1.10
2023-05-16T13:17:55.933Z,1.03
2023-05-16T13:20:22.856Z,1.20
2023-05-16T13:22:49.797Z,0.60
2023-05-16T13:25:16.989Z,0.97
2023-05-16T13:27:44.023Z,1.20
2023-05-16T13:30:11.558Z,1.00
2023-05-16T13:32:38.599Z,1.00
2023-05-16T13:35:06.148Z,1.33
2023-05-16T13:37:33.454Z,1.07
2023-05-16T13:40:00.413Z,0.73
2023-05-16T13:42:27.493Z,3.17
2023-05-16T13:44:54.466Z,0.60
2023-05-16T13:47:21.435Z,0.70
2023-05-16T13:49:48.597Z,0.53
2023-05-16T13:52:15.571Z,0.90
2023-05-16T13:54:42.446Z,1.23
2023-05-16T13:57:09.430Z,2.40
2023-05-16T14:02:06.198Z,1.40
2023-05-16T14:04:33.165Z,0.30
2023-05-16T14:07:00.059Z,1.10
2023-05-16T14:09:27.014Z,1.33
2023-05-16T14:11:54.041Z,0.87
2023-05-16T14:14:21.218Z,1.50
2023-05-16T14:16:48.245Z,1.27
2023-05-16T14:19:18.858Z,1.40
2023-05-16T14:21:46.654Z,2.07
2023-05-16T14:24:13.528Z,1.77
2023-05-16T14:26:40.848Z,1.20
2023-05-16T14:29:07.707Z,0.97
2023-05-16T14:31:36.471Z,0.60
2023-05-16T14:34:04.120Z,0.87
2023-05-16T14:36:31.841Z,0.60
2023-05-16T14:38:59.053Z,2.10
2023-05-16T14:41:26.659Z,2.20
2023-05-16T14:43:53.621Z,0.90
2023-05-16T14:46:20.811Z,1.27
2023-05-16T14:48:47.710Z,0.40
2023-05-16T14:51:15.180Z,0.80
2023-05-16T14:53:42.530Z,1.00
2023-05-16T14:56:10.367Z,0.70
2023-05-16T14:58:37.220Z,1.03
2023-05-16T15:01:04.214Z,1.40
2023-05-16T15:03:37.763Z,3.00
2023-05-16T15:06:14.104Z,2.20
2023-05-16T15:08:41.514Z,1.27
2023-05-16T15:11:08.499Z,5.83
2023-05-16T15:13:35.533Z,4.00
2023-05-16T15:16:02.485Z,1.00
2023-05-16T15:18:29.399Z,0.70
2023-05-16T15:20:56.532Z,0.97
2023-05-16T15:23:23.425Z,0.70
2023-05-16T15:25:52.205Z,1.30
2023-05-16T15:28:21.647Z,2.00
2023-05-16T15:30:50.714Z,1.23
2023-05-16T15:33:17.609Z,0.97
2023-05-16T15:35:44.536Z,1.30
2023-05-16T15:38:11.413Z,0.83
2023-05-16T15:40:38.263Z,0.50
2023-05-16T15:43:05.175Z,0.80
2023-05-16T15:45:33.047Z,0.60
2023-05-16T15:48:00.039Z,1.47
2023-05-16T15:50:27.133Z,1.80
2023-05-16T15:52:54.072Z,0.70
2023-05-16T15:55:22.017Z,1.03
2023-05-16T15:57:48.900Z,0.83
2023-05-16T16:00:16.551Z,0.60
2023-05-16T16:02:45.303Z,1.17
2023-05-16T16:05:12.315Z,0.80
2023-05-16T16:07:39.190Z,1.10
2023-05-16T16:10:07.011Z,0.70
2023-05-16T16:12:34.217Z,0.60
2023-05-16T16:15:02.299Z,0.80
2023-05-16T16:17:29.315Z,1.63
2023-05-16T16:19:56.226Z,0.80
2023-05-16T16:22:23.358Z,0.70
2023-05-16T16:24:50.269Z,0.93
2023-05-16T16:27:17.234Z,2.30
2023-05-16T16:29:44.262Z,1.03
2023-05-16T16:32:11.194Z,0.50
2023-05-16T16:34:38.123Z,0.80
2023-05-16T16:37:05.487Z,0.50
2023-05-16T16:39:33.371Z,1.10
2023-05-16T16:42:00.445Z,1.47
2023-05-16T16:44:27.308Z,0.67
2023-05-16T16:46:54.251Z,0.50
2023-05-16T16:49:21.195Z,0.80
2023-05-16T16:51:48.076Z,0.77
2023-05-16T16:54:14.953Z,0.70
2023-05-16T16:56:41.935Z,2.60
2023-05-16T16:59:09.097Z,0.80
2023-05-16T17:01:36.402Z,0.80
2023-05-16T17:04:03.618Z,1.27
2023-05-16T17:06:30.778Z,0.70
2023-05-16T17:09:02.302Z,0.67
2023-05-16T17:11:30.058Z,1.13
2023-05-16T17:13:59.521Z,1.03
2023-05-16T17:16:28.628Z,2.73
2023-05-16T17:18:56.279Z,0.90
2023-05-16T17:21:23.244Z,0.87
2023-05-16T17:23:53.378Z,0.83
2023-05-16T17:26:20.636Z,0.90
2023-05-16T17:28:49.201Z,1.03
2023-05-16T17:31:16.687Z,2.70
2023-05-16T17:33:44.398Z,1.33
2023-05-16T17:36:11.333Z,0.63
2023-05-16T17:38:38.318Z,2.30
2023-05-16T17:41:05.394Z,2.30
2023-05-16T17:43:32.284Z,0.70
2023-05-16T17:45:59.541Z,1.00
2023-05-16T17:48:27.802Z,1.20
2023-05-16T17:50:54.678Z,0.50
2023-05-16T17:53:21.639Z,0.97
2023-05-16T17:55:49.600Z,0.60
2023-05-16T17:58:17.995Z,1.90
2023-05-16T18:00:46.693Z,0.80
2023-05-16T18:03:13.666Z,3.53
2023-05-16T18:05:40.782Z,0.73
2023-05-16T18:08:08.652Z,1.20
2023-05-16T18:10:50.484Z,1.63
2023-05-16T18:13:18.868Z,1.00
2023-05-16T18:15:45.778Z,0.90
2023-05-16T18:18:12.776Z,0.60
2023-05-16T18:20:40.777Z,0.80
2023-05-16T18:23:08.458Z,1.13
2023-05-16T18:25:35.517Z,0.70
2023-05-16T18:28:02.597Z,0.80
2023-05-16T18:30:29.481Z,2.87
2023-05-16T18:32:56.530Z,0.70
2023-05-16T18:35:23.723Z,0.70
2023-05-16T18:37:51.124Z,0.80
2023-05-16T18:40:18.391Z,1.47
2023-05-16T18:42:45.329Z,0.50
2023-05-16T18:45:12.227Z,1.53
2023-05-16T18:47:39.227Z,0.70
2023-05-16T18:50:07.317Z,0.80
2023-05-16T18:52:35.323Z,1.03
2023-05-16T18:55:02.481Z,2.47
2023-05-16T18:57:30.510Z,0.90
2023-05-16T18:59:58.147Z,0.90
2023-05-16T19:02:37.949Z,1.10
2023-05-16T19:05:09.342Z,0.90
2023-05-16T19:07:36.500Z,0.87
2023-05-16T19:10:04.253Z,1.33
2023-05-16T19:12:35.073Z,1.90
2023-05-16T19:15:01.960Z,0.80
2023-05-16T19:17:29.002Z,2.57
2023-05-16T19:19:56.022Z,0.77
2023-05-16T19:22:22.952Z,0.90
2023-05-16T19:24:50.672Z,0.93
2023-05-16T19:27:17.555Z,2.90
2023-05-16T19:29:44.471Z,1.87
2023-05-16T19:32:11.754Z,1.67
2023-05-16T19:34:38.900Z,1.10
2023-05-16T19:37:07.755Z,3.03
2023-05-16T19:39:34.649Z,1.33
2023-05-16T19:42:07.030Z,1.23
2023-05-16T19:44:35.107Z,0.73
2023-05-16T19:47:02.146Z,0.60
2023-05-16T19:49:31.601Z,0.97
2023-05-16T19:51:58.503Z,0.90
2023-05-16T19:54:26.069Z,0.77
2023-05-16T19:56:53.068Z,0.77
2023-05-16T19:59:20.755Z,0.73
2023-05-16T20:01:47.665Z,0.70
2023-05-16T20:04:14.797Z,0.70
2023-05-16T20:06:41.855Z,0.80
2023-05-16T20:09:10.119Z,3.33
2023-05-16T20:11:37.262Z,0.90
2023-05-16T20:14:04.123Z,1.47
2023-05-16T20:16:31.303Z,0.70
2023-05-16T20:18:58.386Z,0.60
2023-05-16T20:21:25.404Z,0.70
2023-05-16T20:23:52.322Z,0.90
2023-05-16T20:26:19.330Z,0.70
2023-05-16T20:28:46.198Z,0.87
2023-05-16T20:31:13.102Z,0.83
2023-05-16T20:33:40.089Z,1.00
2023-05-16T20:36:07.254Z,2.70
2023-05-16T20:38:34.199Z,0.80
2023-05-16T20:41:03.180Z,2.00
2023-05-16T20:43:30.124Z,2.30
2023-05-16T20:45:57.037Z,1.07
2023-05-16T20:48:24.024Z,0.60
2023-05-16T20:50:51.617Z,0.70
2023-05-16T20:53:18.520Z,0.87
2023-05-16T20:55:45.416Z,1.80
2023-05-16T20:58:12.322Z,0.80
2023-05-16T21:00:39.197Z,2.70
2023-05-16T21:03:06.196Z,0.63
2023-05-16T21:05:35.663Z,0.60
2023-05-16T21:08:02.651Z,1.00
2023-05-16T21:10:29.737Z,0.90
2023-05-16T21:12:56.659Z,1.13
2023-05-16T21:15:23.792Z,0.77
2023-05-16T21:17:51.199Z,2.90
2023-05-16T21:20:18.205Z,0.70
2023-05-16T21:22:45.055Z,3.70
2023-05-16T21:25:14.859Z,2.10
2023-05-16T21:27:41.701Z,1.63
2023-05-16T21:30:09.341Z,0.90
2023-05-16T21:32:36.233Z,1.23
2023-05-16T21:35:04.738Z,0.73
2023-05-16T21:37:31.657Z,0.70
2023-05-16T21:39:58.691Z,1.33
2023-05-16T21:42:25.790Z,0.70
2023-05-16T21:44:52.659Z,1.10
2023-05-16T21:47:19.584Z,0.90
2023-05-16T21:49:46.474Z,0.80
2023-05-16T21:52:13.541Z,1.50
2023-05-16T21:54:40.525Z,0.70
2023-05-16T21:57:07.426Z,0.97
2023-05-16T21:59:34.496Z,1.00
2023-05-16T22:02:01.407Z,1.47
2023-05-16T22:04:28.311Z,0.90
2023-05-16T22:06:55.206Z,1.30
2023-05-16T22:09:22.197Z,0.70
2023-05-16T22:11:49.073Z,0.80
2023-05-16T22:14:16.027Z,2.13
2023-05-16T22:16:43.156Z,1.00
2023-05-16T22:19:10.070Z,2.00
2023-05-16T22:21:37.043Z,0.80
2023-05-16T22:24:04.123Z,1.20
2023-05-16T22:26:31.087Z,1.80
2023-05-16T22:28:58.116Z,1.00
2023-05-16T22:31:25.082Z,0.77
2023-05-16T22:33:52.095Z,1.97
2023-05-16T22:36:19.097Z,0.80
2023-05-16T22:38:46.041Z,2.50
2023-05-16T22:41:12.960Z,3.43
2023-05-16T22:43:39.947Z,1.07
2023-05-16T22:46:06.915Z,0.80
2023-05-16T22:48:34.143Z,0.83
2023-05-16T22:51:02.465Z,1.23
2023-05-16T22:53:29.909Z,1.13
2023-05-16T22:55:57.041Z,1.10
2023-05-16T22:58:23.975Z,1.03
2023-05-16T23:00:50.907Z,1.50
2023-05-16T23:03:17.905Z,0.97
2023-05-16T23:05:44.795Z,1.67
2023-05-16T23:08:11.707Z,0.70
2023-05-16T23:10:38.663Z,1.40
2023-05-16T23:13:05.642Z,1.13
2023-05-16T23:15:32.611Z,1.00
2023-05-16T23:17:59.555Z,1.20
2023-05-16T23:20:26.582Z,1.30
2023-05-16T23:22:53.586Z,1.90
2023-05-16T23:25:20.884Z,1.20
2023-05-16T23:27:47.797Z,0.60
2023-05-16T23:30:15.370Z,0.60
2023-05-16T23:32:42.288Z,0.67
2023-05-16T23:35:09.497Z,0.73
2023-05-16T23:37:36.792Z,1.07
2023-05-16T23:40:04.064Z,0.90
2023-05-16T23:42:31.202Z,1.60
2023-05-16T23:44:58.093Z,1.87
2023-05-16T23:47:25.015Z,0.83
2023-05-16T23:49:51.977Z,1.47
2023-05-16T23:52:19.014Z,0.70
2023-05-16T23:54:45.955Z,0.77
2023-05-16T23:57:14.240Z,1.13
2023-05-16T23:59:41.316Z,2.00
